sensor_id;sensor_type;location;lat;lon;timestamp;P1;durP1;ratioP1;P2;durP2;ratioP2
20593;SDS011;10455;48.732;10.266;2022-08-11T00:01:14;3.60;;;3.30;;
20593;SDS011;10455;48.732;10.266;2022-08-11T00:06:22;3.37;;;3.17;;
20593;SDS011;10455;48.732;10.266;2022-08-11T00:11:32;4.33;;;3.50;;
20593;SDS011;10455;48.732;10.266;2022-08-11T00:16:36;3.73;;;3.30;;
20593;SDS011;10455;48.732;10.266;2022-08-11T00:21:39;4.57;;;3.23;;
20593;SDS011;10455;48.732;10.266;2022-08-11T00:26:47;3.50;;;3.20;;
20593;SDS011;10455;48.732;10.266;2022-08-11T00:31:51;3.77;;;3.47;;
20593;SDS011;10455;48.732;10.266;2022-08-11T00:36:57;4.37;;;3.97;;
20593;SDS011;10455;48.732;10.266;2022-08-11T00:42:05;3.77;;;3.37;;
20593;SDS011;10455;48.732;10.266;2022-08-11T00:47:19;4.03;;;3.73;;
20593;SDS011;10455;48.732;10.266;2022-08-11T01:09:30;5.17;;;4.07;;
20593;SDS011;10455;48.732;10.266;2022-08-11T01:20:48;5.10;;;4.40;;
20593;SDS011;10455;48.732;10.266;2022-08-11T01:32:17;6.27;;;4.77;;
20593;SDS011;10455;48.732;10.266;2022-08-11T01:43:35;5.70;;;4.33;;
20593;SDS011;10455;48.732;10.266;2022-08-11T01:49:24;5.53;;;5.03;;
20593;SDS011;10455;48.732;10.266;2022-08-11T01:54:36;5.27;;;4.80;;
20593;SDS011;10455;48.732;10.266;2022-08-11T01:59:47;9.17;;;5.43;;
20593;SDS011;10455;48.732;10.266;2022-08-11T02:04:55;5.37;;;4.97;;
20593;SDS011;10455;48.732;10.266;2022-08-11T02:10:14;6.87;;;5.20;;
20593;SDS011;10455;48.732;10.266;2022-08-11T02:15:44;5.67;;;5.17;;
20593;SDS011;10455;48.732;10.266;2022-08-11T02:20:51;5.63;;;5.13;;
20593;SDS011;10455;48.732;10.266;2022-08-11T02:26:15;6.07;;;5.30;;
20593;SDS011;10455;48.732;10.266;2022-08-11T02:31:28;6.37;;;5.60;;
20593;SDS011;10455;48.732;10.266;2022-08-11T02:37:00;5.73;;;5.33;;
20593;SDS011;10455;48.732;10.266;2022-08-11T02:42:16;5.73;;;5.23;;
20593;SDS011;10455;48.732;10.266;2022-08-11T02:47:31;5.57;;;5.07;;
20593;SDS011;10455;48.732;10.266;2022-08-11T02:52:43;6.20;;;5.63;;
20593;SDS011;10455;48.732;10.266;2022-08-11T02:58:00;6.23;;;5.63;;
20593;SDS011;10455;48.732;10.266;2022-08-11T03:03:14;6.00;;;5.50;;
20593;SDS011;10455;48.732;10.266;2022-08-11T03:08:23;6.63;;;6.13;;
20593;SDS011;10455;48.732;10.266;2022-08-11T03:13:42;5.60;;;5.20;;
20593;SDS011;10455;48.732;10.266;2022-08-11T03:19:23;6.70;;;5.97;;
20593;SDS011;10455;48.732;10.266;2022-08-11T03:24:32;6.70;;;5.80;;
20593;SDS011;10455;48.732;10.266;2022-08-11T03:29:46;6.00;;;5.37;;
20593;SDS011;10455;48.732;10.266;2022-08-11T03:35:07;6.60;;;6.00;;
20593;SDS011;10455;48.732;10.266;2022-08-11T03:40:15;7.07;;;6.47;;
20593;SDS011;10455;48.732;10.266;2022-08-11T03:45:53;6.10;;;5.60;;
20593;SDS011;10455;48.732;10.266;2022-08-11T03:51:06;5.87;;;5.30;;
20593;SDS011;10455;48.732;10.266;2022-08-11T03:56:20;7.27;;;6.07;;
20593;SDS011;10455;48.732;10.266;2022-08-11T04:07:18;7.70;;;6.50;;
20593;SDS011;10455;48.732;10.266;2022-08-11T04:12:55;7.30;;;6.50;;
20593;SDS011;10455;48.732;10.266;2022-08-11T04:24:07;7.27;;;5.60;;
20593;SDS011;10455;48.732;10.266;2022-08-11T04:29:39;6.20;;;5.63;;
20593;SDS011;10455;48.732;10.266;2022-08-11T04:35:03;5.60;;;5.10;;
20593;SDS011;10455;48.732;10.266;2022-08-11T04:46:14;6.70;;;6.10;;
20593;SDS011;10455;48.732;10.266;2022-08-11T04:51:47;6.10;;;5.60;;
20593;SDS011;10455;48.732;10.266;2022-08-11T04:57:34;6.70;;;5.30;;
20593;SDS011;10455;48.732;10.266;2022-08-11T05:14:33;5.38;;;3.80;;
20593;SDS011;10455;48.732;10.266;2022-08-11T05:19:56;4.75;;;3.50;;
20593;SDS011;10455;48.732;10.266;2022-08-11T05:25:16;5.68;;;3.50;;
20593;SDS011;10455;48.732;10.266;2022-08-11T05:30:44;4.47;;;2.97;;
20593;SDS011;10455;48.732;10.266;2022-08-11T05:36:07;6.40;;;3.22;;
20593;SDS011;10455;48.732;10.266;2022-08-11T05:41:15;12.30;;;3.55;;
20593;SDS011;10455;48.732;10.266;2022-08-11T05:46:40;14.75;;;3.63;;
20593;SDS011;10455;48.732;10.266;2022-08-11T05:52:00;4.80;;;3.53;;
20593;SDS011;10455;48.732;10.266;2022-08-11T05:57:22;4.53;;;2.95;;
20593;SDS011;10455;48.732;10.266;2022-08-11T06:02:29;4.25;;;2.92;;
20593;SDS011;10455;48.732;10.266;2022-08-11T06:07:32;3.70;;;2.90;;
20593;SDS011;10455;48.732;10.266;2022-08-11T06:12:34;6.30;;;3.08;;
20593;SDS011;10455;48.732;10.266;2022-08-11T06:17:43;5.10;;;3.28;;
20593;SDS011;10455;48.732;10.266;2022-08-11T06:22:47;3.67;;;3.38;;
20593;SDS011;10455;48.732;10.266;2022-08-11T06:27:57;3.50;;;3.20;;
20593;SDS011;10455;48.732;10.266;2022-08-11T06:33:02;4.60;;;3.50;;
20593;SDS011;10455;48.732;10.266;2022-08-11T06:38:09;3.60;;;3.25;;
20593;SDS011;10455;48.732;10.266;2022-08-11T06:43:17;4.95;;;3.03;;
20593;SDS011;10455;48.732;10.266;2022-08-11T06:48:23;4.75;;;3.15;;
20593;SDS011;10455;48.732;10.266;2022-08-11T06:53:26;4.95;;;3.03;;
20593;SDS011;10455;48.732;10.266;2022-08-11T07:03:39;5.03;;;3.38;;
20593;SDS011;10455;48.732;10.266;2022-08-11T07:09:02;4.18;;;3.00;;
20593;SDS011;10455;48.732;10.266;2022-08-11T07:14:37;5.38;;;3.00;;
20593;SDS011;10455;48.732;10.266;2022-08-11T07:20:01;3.13;;;2.75;;
20593;SDS011;10455;48.732;10.266;2022-08-11T07:25:23;4.18;;;2.95;;
20593;SDS011;10455;48.732;10.266;2022-08-11T07:30:44;3.78;;;2.75;;
20593;SDS011;10455;48.732;10.266;2022-08-11T07:35:49;3.92;;;2.80;;
20593;SDS011;10455;48.732;10.266;2022-08-11T07:40:56;3.28;;;2.75;;
20593;SDS011;10455;48.732;10.266;2022-08-11T07:45:59;8.52;;;3.08;;
20593;SDS011;10455;48.732;10.266;2022-08-11T07:51:23;3.67;;;3.00;;
20593;SDS011;10455;48.732;10.266;2022-08-11T07:56:43;3.35;;;2.85;;
20593;SDS011;10455;48.732;10.266;2022-08-11T08:01:46;3.75;;;2.40;;
20593;SDS011;10455;48.732;10.266;2022-08-11T08:07:07;3.53;;;2.72;;
20593;SDS011;10455;48.732;10.266;2022-08-11T08:12:27;2.88;;;2.67;;
20593;SDS011;10455;48.732;10.266;2022-08-11T08:17:48;2.72;;;2.53;;
20593;SDS011;10455;48.732;10.266;2022-08-11T08:22:58;3.10;;;2.63;;
20593;SDS011;10455;48.732;10.266;2022-08-11T08:28:10;5.30;;;2.53;;
20593;SDS011;10455;48.732;10.266;2022-08-11T08:33:18;5.18;;;2.60;;
20593;SDS011;10455;48.732;10.266;2022-08-11T08:38:23;4.30;;;2.42;;
20593;SDS011;10455;48.732;10.266;2022-08-11T08:43:25;4.45;;;2.55;;
20593;SDS011;10455;48.732;10.266;2022-08-11T08:48:27;4.32;;;2.40;;
20593;SDS011;10455;48.732;10.266;2022-08-11T08:53:34;2.60;;;2.30;;
20593;SDS011;10455;48.732;10.266;2022-08-11T08:58:40;4.22;;;2.40;;
20593;SDS011;10455;48.732;10.266;2022-08-11T09:03:46;3.25;;;2.30;;
20593;SDS011;10455;48.732;10.266;2022-08-11T09:08:50;4.00;;;2.60;;
20593;SDS011;10455;48.732;10.266;2022-08-11T09:13:53;2.92;;;2.08;;
20593;SDS011;10455;48.732;10.266;2022-08-11T09:18:56;2.92;;;2.30;;
20593;SDS011;10455;48.732;10.266;2022-08-11T09:24:02;2.80;;;2.25;;
20593;SDS011;10455;48.732;10.266;2022-08-11T09:29:23;2.50;;;2.30;;
20593;SDS011;10455;48.732;10.266;2022-08-11T09:34:27;2.50;;;2.30;;
20593;SDS011;10455;48.732;10.266;2022-08-11T09:39:31;5.28;;;2.30;;
20593;SDS011;10455;48.732;10.266;2022-08-11T09:44:55;2.83;;;2.05;;
20593;SDS011;10455;48.732;10.266;2022-08-11T09:49:58;2.30;;;2.10;;
20593;SDS011;10455;48.732;10.266;2022-08-11T09:55:03;4.57;;;1.98;;
20593;SDS011;10455;48.732;10.266;2022-08-11T10:00:11;1.90;;;1.80;;
20593;SDS011;10455;48.732;10.266;2022-08-11T10:05:14;2.67;;;2.00;;
20593;SDS011;10455;48.732;10.266;2022-08-11T10:10:38;6.05;;;2.03;;
20593;SDS011;10455;48.732;10.266;2022-08-11T10:15:41;2.45;;;2.05;;
20593;SDS011;10455;48.732;10.266;2022-08-11T10:20:46;2.97;;;2.00;;
20593;SDS011;10455;48.732;10.266;2022-08-11T10:25:52;1.70;;;1.60;;
20593;SDS011;10455;48.732;10.266;2022-08-11T10:31:12;3.88;;;2.00;;
20593;SDS011;10455;48.732;10.266;2022-08-11T10:36:33;2.67;;;1.60;;
20593;SDS011;10455;48.732;10.266;2022-08-11T10:41:43;5.10;;;1.67;;
20593;SDS011;10455;48.732;10.266;2022-08-11T10:47:04;2.00;;;1.90;;
20593;SDS011;10455;48.732;10.266;2022-08-11T10:52:24;3.15;;;2.10;;
20593;SDS011;10455;48.732;10.266;2022-08-11T10:57:47;2.17;;;1.73;;
20593;SDS011;10455;48.732;10.266;2022-08-11T11:03:07;3.60;;;1.80;;
20593;SDS011;10455;48.732;10.266;2022-08-11T11:08:11;3.17;;;1.73;;
20593;SDS011;10455;48.732;10.266;2022-08-11T11:13:30;2.53;;;2.05;;
20593;SDS011;10455;48.732;10.266;2022-08-11T11:18:54;2.42;;;1.90;;
20593;SDS011;10455;48.732;10.266;2022-08-11T11:24:05;2.05;;;1.80;;
20593;SDS011;10455;48.732;10.266;2022-08-11T11:29:40;1.77;;;1.67;;
20593;SDS011;10455;48.732;10.266;2022-08-11T11:35:00;2.00;;;1.67;;
20593;SDS011;10455;48.732;10.266;2022-08-11T11:40:26;2.40;;;1.80;;
20593;SDS011;10455;48.732;10.266;2022-08-11T11:45:31;2.05;;;1.88;;
20593;SDS011;10455;48.732;10.266;2022-08-11T11:50:34;2.63;;;1.90;;
20593;SDS011;10455;48.732;10.266;2022-08-11T11:55:37;3.97;;;1.88;;
20593;SDS011;10455;48.732;10.266;2022-08-11T12:00:42;2.35;;;1.83;;
20593;SDS011;10455;48.732;10.266;2022-08-11T12:06:03;3.38;;;1.90;;
20593;SDS011;10455;48.732;10.266;2022-08-11T12:11:08;2.42;;;1.60;;
20593;SDS011;10455;48.732;10.266;2022-08-11T12:16:30;3.45;;;1.80;;
20593;SDS011;10455;48.732;10.266;2022-08-11T12:21:35;1.90;;;1.60;;
20593;SDS011;10455;48.732;10.266;2022-08-11T12:26:58;1.73;;;1.63;;
20593;SDS011;10455;48.732;10.266;2022-08-11T12:32:20;1.95;;;1.70;;
20593;SDS011;10455;48.732;10.266;2022-08-11T12:37:26;2.28;;;2.03;;
20593;SDS011;10455;48.732;10.266;2022-08-11T12:42:32;3.80;;;1.80;;
20593;SDS011;10455;48.732;10.266;2022-08-11T12:47:58;2.05;;;1.70;;
20593;SDS011;10455;48.732;10.266;2022-08-11T12:53:23;2.17;;;1.90;;
20593;SDS011;10455;48.732;10.266;2022-08-11T12:58:27;4.72;;;1.60;;
20593;SDS011;10455;48.732;10.266;2022-08-11T13:03:32;6.30;;;2.00;;
20593;SDS011;10455;48.732;10.266;2022-08-11T13:08:53;2.88;;;1.77;;
20593;SDS011;10455;48.732;10.266;2022-08-11T13:13:58;4.05;;;1.85;;
20593;SDS011;10455;48.732;10.266;2022-08-11T13:19:02;2.17;;;1.70;;
20593;SDS011;10455;48.732;10.266;2022-08-11T13:24:04;3.33;;;1.55;;
20593;SDS011;10455;48.732;10.266;2022-08-11T13:29:06;4.50;;;1.60;;
20593;SDS011;10455;48.732;10.266;2022-08-11T13:34:11;2.17;;;1.75;;
20593;SDS011;10455;48.732;10.266;2022-08-11T13:39:15;1.65;;;1.55;;
20593;SDS011;10455;48.732;10.266;2022-08-11T13:44:18;1.95;;;1.65;;
20593;SDS011;10455;48.732;10.266;2022-08-11T13:49:24;2.10;;;1.77;;
20593;SDS011;10455;48.732;10.266;2022-08-11T13:54:29;2.65;;;1.63;;
20593;SDS011;10455;48.732;10.266;2022-08-11T13:59:33;2.47;;;1.50;;
20593;SDS011;10455;48.732;10.266;2022-08-11T14:04:38;1.50;;;1.40;;
20593;SDS011;10455;48.732;10.266;2022-08-11T14:09:43;2.40;;;1.60;;
20593;SDS011;10455;48.732;10.266;2022-08-11T14:14:51;2.47;;;1.58;;
20593;SDS011;10455;48.732;10.266;2022-08-11T14:20:02;3.05;;;1.85;;
20593;SDS011;10455;48.732;10.266;2022-08-11T14:25:08;4.28;;;1.90;;
20593;SDS011;10455;48.732;10.266;2022-08-11T14:30:12;2.17;;;1.85;;
20593;SDS011;10455;48.732;10.266;2022-08-11T14:35:29;5.22;;;1.75;;
20593;SDS011;10455;48.732;10.266;2022-08-11T14:40:32;3.00;;;2.00;;
20593;SDS011;10455;48.732;10.266;2022-08-11T14:45:51;1.85;;;1.75;;
20593;SDS011;10455;48.732;10.266;2022-08-11T14:51:14;1.60;;;1.50;;
20593;SDS011;10455;48.732;10.266;2022-08-11T14:56:17;2.35;;;1.90;;
20593;SDS011;10455;48.732;10.266;2022-08-11T15:01:37;2.17;;;1.52;;
20593;SDS011;10455;48.732;10.266;2022-08-11T15:06:59;4.25;;;1.95;;
20593;SDS011;10455;48.732;10.266;2022-08-11T15:12:02;3.38;;;2.17;;
20593;SDS011;10455;48.732;10.266;2022-08-11T15:17:15;1.90;;;1.55;;
20593;SDS011;10455;48.732;10.266;2022-08-11T15:22:19;3.30;;;1.70;;
20593;SDS011;10455;48.732;10.266;2022-08-11T15:27:39;2.00;;;1.80;;
20593;SDS011;10455;48.732;10.266;2022-08-11T15:33:02;2.13;;;1.75;;
20593;SDS011;10455;48.732;10.266;2022-08-11T15:38:25;2.33;;;2.00;;
20593;SDS011;10455;48.732;10.266;2022-08-11T15:43:31;2.17;;;1.80;;
20593;SDS011;10455;48.732;10.266;2022-08-11T15:48:57;1.70;;;1.60;;
20593;SDS011;10455;48.732;10.266;2022-08-11T15:54:04;4.03;;;1.90;;
20593;SDS011;10455;48.732;10.266;2022-08-11T15:59:10;2.30;;;1.83;;
20593;SDS011;10455;48.732;10.266;2022-08-11T16:04:31;2.55;;;1.80;;
20593;SDS011;10455;48.732;10.266;2022-08-11T16:09:39;1.92;;;1.83;;
20593;SDS011;10455;48.732;10.266;2022-08-11T16:14:48;3.83;;;2.15;;
20593;SDS011;10455;48.732;10.266;2022-08-11T16:20:10;1.92;;;1.70;;
20593;SDS011;10455;48.732;10.266;2022-08-11T16:25:16;2.78;;;1.88;;
20593;SDS011;10455;48.732;10.266;2022-08-11T16:30:21;3.35;;;2.00;;
20593;SDS011;10455;48.732;10.266;2022-08-11T16:35:24;2.10;;;1.80;;
20593;SDS011;10455;48.732;10.266;2022-08-11T16:40:46;3.30;;;1.83;;
20593;SDS011;10455;48.732;10.266;2022-08-11T16:45:51;5.15;;;2.40;;
20593;SDS011;10455;48.732;10.266;2022-08-11T16:51:13;3.92;;;2.30;;
20593;SDS011;10455;48.732;10.266;2022-08-11T16:56:19;2.17;;;1.98;;
20593;SDS011;10455;48.732;10.266;2022-08-11T17:01:25;4.13;;;2.20;;
20593;SDS011;10455;48.732;10.266;2022-08-11T17:06:28;2.83;;;2.30;;
20593;SDS011;10455;48.732;10.266;2022-08-11T17:11:52;4.05;;;2.10;;
20593;SDS011;10455;48.732;10.266;2022-08-11T17:17:16;3.00;;;2.10;;
20593;SDS011;10455;48.732;10.266;2022-08-11T17:22:25;2.47;;;2.25;;
20593;SDS011;10455;48.732;10.266;2022-08-11T17:27:47;2.72;;;2.20;;
20593;SDS011;10455;48.732;10.266;2022-08-11T17:32:51;2.45;;;2.22;;
20593;SDS011;10455;48.732;10.266;2022-08-11T17:38:11;3.53;;;2.25;;
20593;SDS011;10455;48.732;10.266;2022-08-11T17:43:17;2.53;;;2.33;;
20593;SDS011;10455;48.732;10.266;2022-08-11T17:48:37;2.15;;;1.98;;
20593;SDS011;10455;48.732;10.266;2022-08-11T17:53:42;2.20;;;2.00;;
20593;SDS011;10455;48.732;10.266;2022-08-11T17:59:04;9.50;;;2.60;;
20593;SDS011;10455;48.732;10.266;2022-08-11T18:04:26;2.60;;;2.10;;
20593;SDS011;10455;48.732;10.266;2022-08-11T18:09:29;5.90;;;1.98;;
20593;SDS011;10455;48.732;10.266;2022-08-11T18:14:50;4.50;;;2.53;;
20593;SDS011;10455;48.732;10.266;2022-08-11T18:20:12;3.03;;;2.17;;
20593;SDS011;10455;48.732;10.266;2022-08-11T18:25:32;3.15;;;2.20;;
20593;SDS011;10455;48.732;10.266;2022-08-11T18:30:59;4.30;;;2.20;;
20593;SDS011;10455;48.732;10.266;2022-08-11T18:36:22;2.35;;;2.15;;
20593;SDS011;10455;48.732;10.266;2022-08-11T18:41:45;2.90;;;2.22;;
20593;SDS011;10455;48.732;10.266;2022-08-11T18:47:09;3.15;;;2.33;;
20593;SDS011;10455;48.732;10.266;2022-08-11T18:52:31;2.85;;;2.42;;
20593;SDS011;10455;48.732;10.266;2022-08-11T18:57:53;4.65;;;2.42;;
20593;SDS011;10455;48.732;10.266;2022-08-11T19:03:15;4.90;;;2.70;;
20593;SDS011;10455;48.732;10.266;2022-08-11T19:08:36;2.38;;;2.17;;
20593;SDS011;10455;48.732;10.266;2022-08-11T19:13:59;2.65;;;2.45;;
20593;SDS011;10455;48.732;10.266;2022-08-11T19:19:21;5.15;;;2.60;;
20593;SDS011;10455;48.732;10.266;2022-08-11T19:24:43;4.20;;;2.33;;
20593;SDS011;10455;48.732;10.266;2022-08-11T19:30:05;4.40;;;2.60;;
20593;SDS011;10455;48.732;10.266;2022-08-11T19:35:26;3.90;;;2.80;;
20593;SDS011;10455;48.732;10.266;2022-08-11T19:40:47;2.65;;;2.38;;
20593;SDS011;10455;48.732;10.266;2022-08-11T19:46:08;2.83;;;2.42;;
20593;SDS011;10455;48.732;10.266;2022-08-11T19:51:30;5.72;;;2.83;;
20593;SDS011;10455;48.732;10.266;2022-08-11T19:56:51;3.65;;;2.55;;
20593;SDS011;10455;48.732;10.266;2022-08-11T20:02:11;4.70;;;2.80;;
20593;SDS011;10455;48.732;10.266;2022-08-11T20:07:32;5.30;;;2.70;;
20593;SDS011;10455;48.732;10.266;2022-08-11T20:12:52;6.47;;;2.80;;
20593;SDS011;10455;48.732;10.266;2022-08-11T20:18:13;5.60;;;2.83;;
20593;SDS011;10455;48.732;10.266;2022-08-11T20:23:35;4.60;;;2.85;;
20593;SDS011;10455;48.732;10.266;2022-08-11T20:28:56;5.22;;;2.53;;
20593;SDS011;10455;48.732;10.266;2022-08-11T20:34:17;4.22;;;2.63;;
20593;SDS011;10455;48.732;10.266;2022-08-11T20:39:39;7.77;;;3.20;;
20593;SDS011;10455;48.732;10.266;2022-08-11T20:45:02;7.30;;;2.70;;
20593;SDS011;10455;48.732;10.266;2022-08-11T20:50:24;3.42;;;2.50;;
20593;SDS011;10455;48.732;10.266;2022-08-11T20:55:46;4.13;;;2.50;;
20593;SDS011;10455;48.732;10.266;2022-08-11T21:01:08;2.75;;;2.55;;
20593;SDS011;10455;48.732;10.266;2022-08-11T21:06:28;2.50;;;2.30;;
20593;SDS011;10455;48.732;10.266;2022-08-11T21:11:50;2.60;;;2.40;;
20593;SDS011;10455;48.732;10.266;2022-08-11T21:17:12;4.93;;;2.55;;
20593;SDS011;10455;48.732;10.266;2022-08-11T21:22:33;4.03;;;2.50;;
20593;SDS011;10455;48.732;10.266;2022-08-11T21:27:59;3.65;;;2.60;;
20593;SDS011;10455;48.732;10.266;2022-08-11T21:33:22;3.10;;;2.53;;
20593;SDS011;10455;48.732;10.266;2022-08-11T21:38:42;3.28;;;2.58;;
20593;SDS011;10455;48.732;10.266;2022-08-11T21:44:04;2.67;;;2.45;;
20593;SDS011;10455;48.732;10.266;2022-08-11T21:49:25;3.22;;;2.60;;
20593;SDS011;10455;48.732;10.266;2022-08-11T21:54:47;5.38;;;3.25;;
20593;SDS011;10455;48.732;10.266;2022-08-11T22:00:09;3.13;;;2.80;;
20593;SDS011;10455;48.732;10.266;2022-08-11T22:05:31;3.85;;;2.75;;
20593;SDS011;10455;48.732;10.266;2022-08-11T22:10:51;2.53;;;2.25;;
20593;SDS011;10455;48.732;10.266;2022-08-11T22:16:12;3.38;;;2.40;;
20593;SDS011;10455;48.732;10.266;2022-08-11T22:21:32;3.47;;;2.60;;
20593;SDS011;10455;48.732;10.266;2022-08-11T22:26:54;3.15;;;2.40;;
20593;SDS011;10455;48.732;10.266;2022-08-11T22:32:15;3.83;;;2.80;;
20593;SDS011;10455;48.732;10.266;2022-08-11T22:37:35;5.65;;;3.35;;
20593;SDS011;10455;48.732;10.266;2022-08-11T22:42:57;3.72;;;2.90;;
20593;SDS011;10455;48.732;10.266;2022-08-11T22:48:18;5.60;;;2.70;;
20593;SDS011;10455;48.732;10.266;2022-08-11T22:53:39;3.28;;;2.70;;
20593;SDS011;10455;48.732;10.266;2022-08-11T22:58:58;4.53;;;2.92;;
20593;SDS011;10455;48.732;10.266;2022-08-11T23:04:20;4.15;;;2.90;;
20593;SDS011;10455;48.732;10.266;2022-08-11T23:09:40;4.20;;;3.03;;
20593;SDS011;10455;48.732;10.266;2022-08-11T23:14:59;3.13;;;2.83;;
20593;SDS011;10455;48.732;10.266;2022-08-11T23:20:21;6.43;;;3.10;;
20593;SDS011;10455;48.732;10.266;2022-08-11T23:25:42;4.53;;;2.90;;
20593;SDS011;10455;48.732;10.266;2022-08-11T23:31:03;3.60;;;2.80;;
20593;SDS011;10455;48.732;10.266;2022-08-11T23:36:25;4.37;;;3.10;;
20593;SDS011;10455;48.732;10.266;2022-08-11T23:41:45;4.23;;;3.57;;
20593;SDS011;10455;48.732;10.266;2022-08-11T23:47:04;3.50;;;3.20;;
20593;SDS011;10455;48.732;10.266;2022-08-11T23:52:26;4.37;;;2.80;;
20593;SDS011;10455;48.732;10.266;2022-08-11T23:57:47;5.30;;;3.40;;
